createdAt,value
2018-07-14T00:02:01.744Z,182.62
2018-07-14T00:04:33.164Z,183.72
2018-07-14T00:07:09.331Z,186.82
2018-07-14T00:09:40.620Z,189.20
2018-07-14T00:12:12.286Z,187.10
2018-07-14T00:14:43.538Z,181.93
2018-07-14T00:17:14.865Z,178.78
2018-07-14T00:19:46.179Z,179.70
2018-07-14T00:22:17.546Z,177.57
2018-07-14T00:24:48.687Z,180.45
2018-07-14T00:27:20.004Z,185.37
2018-07-14T00:29:51.301Z,181.75
2018-07-14T00:32:22.634Z,183.72
2018-07-14T00:34:54.284Z,183.40
2018-07-14T00:37:25.516Z,180.75
2018-07-14T00:39:57.054Z,181.12
2018-07-14T00:42:28.287Z,182.25
2018-07-14T00:44:59.475Z,179.87
2018-07-14T00:47:30.730Z,179.03
2018-07-14T00:50:01.973Z,184.50
2018-07-14T00:52:33.114Z,181.67
2018-07-14T00:55:04.446Z,180.07
2018-07-14T00:57:35.737Z,181.60
2018-07-14T01:00:06.895Z,182.43
2018-07-14T01:02:38.119Z,181.25
2018-07-14T01:05:10.561Z,182.93
2018-07-14T01:07:42.579Z,180.75
2018-07-14T01:10:13.828Z,180.03
2018-07-14T01:12:46.032Z,182.12
2018-07-14T01:15:20.393Z,178.05
2018-07-14T01:17:51.860Z,176.90
2018-07-14T01:20:23.031Z,178.25
2018-07-14T01:22:54.303Z,183.03
2018-07-14T01:25:25.458Z,185.97
2018-07-14T01:27:56.663Z,183.90
2018-07-14T01:30:27.779Z,189.28
2018-07-14T01:32:58.959Z,181.45
2018-07-14T01:35:31.611Z,182.10
2018-07-14T01:38:04.598Z,180.57
2018-07-14T01:40:36.179Z,178.32
2018-07-14T01:43:08.400Z,179.85
2018-07-14T01:45:39.754Z,182.60
2018-07-14T01:48:13.098Z,179.95
2018-07-14T01:50:46.524Z,181.15
2018-07-14T01:53:17.959Z,182.62
2018-07-14T01:55:49.167Z,183.35
2018-07-14T01:58:20.278Z,182.47
2018-07-14T02:00:51.471Z,186.62
2018-07-14T02:03:22.605Z,181.05
2018-07-14T02:05:53.843Z,178.10
2018-07-14T02:08:25.290Z,179.10
2018-07-14T02:10:56.470Z,183.37
2018-07-14T02:13:27.679Z,179.50
2018-07-14T02:15:58.801Z,184.97
2018-07-14T02:18:29.962Z,182.85
2018-07-14T02:21:01.366Z,185.05
2018-07-14T02:23:32.507Z,188.72
2018-07-14T02:26:03.766Z,185.32
2018-07-14T02:28:35.046Z,186.80
2018-07-14T02:31:06.227Z,182.78
2018-07-14T02:33:37.459Z,183.52
2018-07-14T02:36:08.708Z,182.78
2018-07-14T02:38:40.353Z,183.07
2018-07-14T02:41:11.595Z,187.55
2018-07-14T02:43:43.036Z,180.90
2018-07-14T02:46:14.697Z,183.20
2018-07-14T02:48:46.011Z,184.65
2018-07-14T02:51:17.014Z,181.47
2018-07-14T02:53:48.127Z,180.25
2018-07-14T02:56:19.256Z,182.50
2018-07-14T02:58:50.920Z,179.20
2018-07-14T03:01:23.019Z,185.48
2018-07-14T03:03:54.331Z,190.50
2018-07-14T03:06:25.423Z,185.20
2018-07-14T03:08:56.705Z,182.15
2018-07-14T03:11:27.860Z,184.28
2018-07-14T03:13:59.103Z,183.07
2018-07-14T03:16:30.331Z,189.77
2018-07-14T03:19:01.584Z,187.45
2018-07-14T03:21:32.761Z,187.47
2018-07-14T03:24:04.004Z,182.88
2018-07-14T03:26:35.041Z,181.10
2018-07-14T03:29:06.229Z,185.73
2018-07-14T03:31:37.348Z,183.70
2018-07-14T03:34:08.533Z,180.75
2018-07-14T03:36:39.858Z,182.72
2018-07-14T03:39:11.384Z,183.20
2018-07-14T03:41:42.607Z,216.53
2018-07-14T03:44:13.607Z,197.55
2018-07-14T03:46:45.061Z,187.43
2018-07-14T03:49:16.126Z,185.25
2018-07-14T03:51:47.235Z,183.35
2018-07-14T03:54:18.355Z,185.45
2018-07-14T03:56:51.086Z,183.80
2018-07-14T03:59:23.322Z,183.15
2018-07-14T04:01:54.585Z,183.45
2018-07-14T04:04:25.698Z,184.25
2018-07-14T04:06:57.132Z,185.50
2018-07-14T04:09:28.246Z,182.15
2018-07-14T04:11:59.487Z,184.30
2018-07-14T04:14:31.702Z,183.07
2018-07-14T04:17:02.926Z,186.30
2018-07-14T04:19:34.190Z,186.03
2018-07-14T04:22:06.936Z,186.77
2018-07-14T04:24:38.032Z,185.12
2018-07-14T04:27:09.228Z,186.77
2018-07-14T04:29:40.431Z,186.75
2018-07-14T04:32:12.361Z,183.52
2018-07-14T04:34:43.525Z,181.87
2018-07-14T04:37:14.761Z,186.52
2018-07-14T04:39:45.974Z,185.05
2018-07-14T04:42:17.364Z,180.48
2018-07-14T04:44:48.513Z,179.90
2018-07-14T04:47:20.028Z,180.78
2018-07-14T04:49:51.674Z,186.15
2018-07-14T04:52:22.855Z,193.00
2018-07-14T04:54:55.481Z,181.07
2018-07-14T04:57:26.982Z,183.42
2018-07-14T04:59:58.380Z,182.50
2018-07-14T05:02:29.669Z,182.62
2018-07-14T05:05:00.876Z,183.95
2018-07-14T05:07:32.072Z,184.78
2018-07-14T05:10:03.321Z,181.97
2018-07-14T05:12:35.124Z,187.00
2018-07-14T05:15:06.628Z,184.18
2018-07-14T05:17:37.802Z,183.15
2018-07-14T05:20:09.668Z,183.22
2018-07-14T05:22:40.876Z,187.10
2018-07-14T05:25:13.576Z,190.22
2018-07-14T05:27:46.295Z,182.82
2018-07-14T05:30:17.904Z,188.35
2018-07-14T05:32:49.123Z,189.70
2018-07-14T05:35:21.564Z,185.55
2018-07-14T05:37:53.060Z,187.80
2018-07-14T05:40:24.460Z,194.52
2018-07-14T05:42:55.868Z,190.25
2018-07-14T05:45:28.217Z,187.68
2018-07-14T05:48:01.719Z,188.57
2018-07-14T05:50:33.659Z,188.70
2018-07-14T05:53:06.493Z,189.45
2018-07-14T05:55:38.053Z,186.73
2018-07-14T05:58:10.735Z,191.18
2018-07-14T06:00:42.008Z,190.00
2018-07-14T06:03:13.178Z,192.43
2018-07-14T06:05:44.303Z,191.70
2018-07-14T06:08:15.469Z,189.25
2018-07-14T06:10:46.583Z,192.57
2018-07-14T06:13:18.347Z,192.57
2018-07-14T06:15:49.848Z,189.25
2018-07-14T06:18:21.346Z,200.22
2018-07-14T06:20:52.415Z,194.67
2018-07-14T06:23:24.181Z,195.68
2018-07-14T06:25:55.559Z,195.85
2018-07-14T06:28:26.836Z,196.15
2018-07-14T06:30:57.977Z,195.77
2018-07-14T06:33:29.302Z,196.12
2018-07-14T06:36:00.614Z,191.18
2018-07-14T06:38:32.545Z,194.20
2018-07-14T06:41:04.006Z,196.22
2018-07-14T06:43:35.472Z,194.57
2018-07-14T06:46:07.247Z,194.40
2018-07-14T06:48:38.907Z,192.47
2018-07-14T06:51:10.053Z,213.37
2018-07-14T06:53:41.467Z,204.95
2018-07-14T06:56:12.606Z,199.20
2018-07-14T06:58:43.875Z,198.95
2018-07-14T07:01:15.008Z,195.03
2018-07-14T07:03:46.494Z,196.85
2018-07-14T07:06:17.861Z,199.27
2018-07-14T07:08:49.006Z,201.47
2018-07-14T07:11:20.127Z,204.30
2018-07-14T07:13:51.991Z,200.72
2018-07-14T07:16:23.201Z,199.07
2018-07-14T07:18:54.671Z,200.62
2018-07-14T07:21:25.805Z,197.65
2018-07-14T07:23:57.064Z,193.72
2018-07-14T07:26:28.172Z,197.28
2018-07-14T07:28:59.504Z,200.35
2018-07-14T07:31:30.961Z,198.85
2018-07-14T07:34:02.663Z,195.57
2018-07-14T07:36:34.019Z,201.80
2018-07-14T07:39:14.640Z,199.20
2018-07-14T07:41:53.626Z,197.43
2018-07-14T07:44:25.117Z,195.70
2018-07-14T07:46:56.574Z,203.90
2018-07-14T07:49:28.434Z,201.07
2018-07-14T07:51:59.776Z,200.78
2018-07-14T07:54:32.030Z,196.95
2018-07-14T07:57:04.518Z,196.93
2018-07-14T07:59:36.239Z,204.97
2018-07-14T08:02:07.401Z,200.18
2018-07-14T08:04:38.681Z,193.45
2018-07-14T08:07:10.094Z,198.40
2018-07-14T08:09:43.310Z,200.80
2018-07-14T08:12:15.934Z,211.47
2018-07-14T08:14:47.380Z,199.85
2018-07-14T08:17:18.704Z,197.62
2018-07-14T08:19:49.982Z,195.32
2018-07-14T08:22:21.138Z,199.55
2018-07-14T08:24:52.498Z,198.85
2018-07-14T08:27:23.790Z,203.98
2018-07-14T08:29:55.202Z,199.55
2018-07-14T08:32:26.585Z,199.38
2018-07-14T08:34:57.911Z,194.55
2018-07-14T08:37:30.851Z,202.32
2018-07-14T08:40:02.435Z,196.72
2018-07-14T08:42:33.926Z,197.65
2018-07-14T08:45:05.181Z,194.43
2018-07-14T08:47:37.367Z,199.17
2018-07-14T08:50:10.507Z,201.47
2018-07-14T08:52:42.962Z,198.62
2018-07-14T08:55:16.944Z,200.00
2018-07-14T08:57:49.210Z,203.47
2018-07-14T09:00:21.070Z,214.17
2018-07-14T09:02:52.826Z,208.30
2018-07-14T09:05:24.874Z,215.35
2018-07-14T09:07:56.261Z,203.77
2018-07-14T09:10:27.436Z,208.25
2018-07-14T09:12:58.768Z,207.22
2018-07-14T09:15:33.415Z,209.45
2018-07-14T09:18:05.946Z,214.25
2018-07-14T09:20:37.612Z,208.55
2018-07-14T09:23:10.359Z,205.07
2018-07-14T09:25:41.716Z,200.35
2018-07-14T09:28:14.186Z,206.57
2018-07-14T09:30:45.599Z,209.75
2018-07-14T09:33:16.915Z,212.82
2018-07-14T09:35:48.132Z,207.62
2018-07-14T09:38:19.271Z,227.50
2018-07-14T09:40:50.527Z,205.55
2018-07-14T09:43:21.725Z,208.93
2018-07-14T09:45:53.027Z,206.15
2018-07-14T09:48:24.339Z,204.47
2018-07-14T09:50:55.775Z,200.82
2018-07-14T09:53:26.909Z,202.87
2018-07-14T09:55:58.676Z,203.02
2018-07-14T09:58:29.965Z,212.65
2018-07-14T10:01:06.149Z,241.33
2018-07-14T10:03:38.122Z,212.20
2018-07-14T10:06:09.408Z,200.82
2018-07-14T10:08:40.715Z,213.12
2018-07-14T10:11:12.109Z,216.68
2018-07-14T10:13:43.880Z,209.00
2018-07-14T10:16:22.400Z,208.90
2018-07-14T10:21:57.690Z,215.28
2018-07-14T10:24:28.859Z,203.88
2018-07-14T10:27:02.796Z,207.03
2018-07-14T10:29:34.400Z,206.32
2018-07-14T10:32:06.920Z,201.05
2018-07-14T10:34:38.647Z,195.45
2018-07-14T10:37:10.078Z,213.47
2018-07-14T10:39:41.530Z,191.10
2018-07-14T10:42:12.961Z,202.28
2018-07-14T10:44:44.478Z,210.97
2018-07-14T10:47:15.656Z,206.30
2018-07-14T10:49:46.980Z,200.68
2018-07-14T10:52:20.217Z,204.85
2018-07-14T10:54:51.363Z,195.70
2018-07-14T10:57:22.680Z,198.53
2018-07-14T10:59:54.076Z,200.05
2018-07-14T11:02:26.439Z,205.95
2018-07-14T11:04:57.759Z,206.90
2018-07-14T11:07:29.511Z,212.97
2018-07-14T11:10:00.966Z,211.12
2018-07-14T11:12:32.371Z,215.25
2018-07-14T11:15:03.876Z,202.30
2018-07-14T11:17:35.505Z,213.45
2018-07-14T11:20:07.123Z,207.92
2018-07-14T11:22:38.311Z,211.20
2018-07-14T11:25:09.741Z,204.25
2018-07-14T11:27:40.939Z,213.12
2018-07-14T11:30:14.572Z,212.08
2018-07-14T11:32:46.137Z,211.57
2018-07-14T11:35:17.798Z,201.15
2018-07-14T11:37:49.251Z,218.05
2018-07-14T11:40:20.866Z,209.77
2018-07-14T11:42:52.628Z,208.02
2018-07-14T11:45:24.635Z,215.45
2018-07-14T11:47:56.108Z,211.87
2018-07-14T11:50:30.882Z,216.35
2018-07-14T11:53:03.572Z,221.55
2018-07-14T11:55:35.573Z,222.82
2018-07-14T11:58:07.374Z,213.65
2018-07-14T12:00:39.760Z,209.15
2018-07-14T12:03:11.677Z,211.12
2018-07-14T12:05:42.759Z,224.58
2018-07-14T12:08:14.159Z,198.70
2018-07-14T12:10:45.597Z,209.15
2018-07-14T12:13:16.928Z,215.03
2018-07-14T12:15:48.296Z,218.05
2018-07-14T12:18:19.562Z,221.50
2018-07-14T12:20:50.732Z,200.45
2018-07-14T12:23:21.936Z,219.20
2018-07-14T12:25:53.303Z,218.10
2018-07-14T12:28:27.600Z,214.15
2018-07-14T12:30:59.690Z,208.90
2018-07-14T12:33:31.061Z,204.85
2018-07-14T12:36:02.904Z,206.00
2018-07-14T12:38:34.307Z,213.82
2018-07-14T12:41:05.520Z,224.73
2018-07-14T12:43:37.008Z,217.80
2018-07-14T12:46:09.117Z,216.90
2018-07-14T12:48:40.633Z,213.50
2018-07-14T12:51:11.895Z,207.35
2018-07-14T12:53:43.154Z,203.80
2018-07-14T12:56:15.170Z,212.97
2018-07-14T12:58:46.513Z,210.90
2018-07-14T13:01:18.290Z,208.28
2018-07-14T13:03:49.595Z,205.40
2018-07-14T13:06:21.082Z,209.72
2018-07-14T13:08:52.380Z,207.83
2018-07-14T13:11:24.120Z,217.10
2018-07-14T13:13:55.384Z,208.93
2018-07-14T13:16:26.785Z,220.63
2018-07-14T13:18:58.291Z,215.25
2018-07-14T13:21:29.558Z,222.80
2018-07-14T13:24:01.856Z,231.00
2018-07-14T13:26:33.450Z,243.45
2018-07-14T13:29:04.675Z,234.25
2018-07-14T13:31:35.959Z,219.10
2018-07-14T13:34:07.249Z,217.25
2018-07-14T13:36:38.468Z,218.80
2018-07-14T13:39:09.709Z,217.43
2018-07-14T13:41:40.876Z,227.22
2018-07-14T13:44:12.272Z,215.18
2018-07-14T13:46:43.691Z,224.75
2018-07-14T13:49:14.847Z,233.95
2018-07-14T13:51:46.187Z,227.57
2018-07-14T13:54:17.468Z,230.85
2018-07-14T13:56:49.019Z,243.02
2018-07-14T13:59:20.257Z,235.15
2018-07-14T14:01:51.484Z,229.65
2018-07-14T14:04:22.723Z,236.62
2018-07-14T14:06:54.157Z,224.50
2018-07-14T14:09:25.940Z,230.20
2018-07-14T14:11:57.444Z,216.78
2018-07-14T14:14:29.339Z,221.20
2018-07-14T14:17:00.943Z,212.12
2018-07-14T14:19:32.336Z,224.95
2018-07-14T14:22:04.256Z,210.30
2018-07-14T14:24:35.275Z,221.00
2018-07-14T14:27:06.982Z,225.47
2018-07-14T14:29:38.187Z,218.48
2018-07-14T14:32:09.607Z,245.40
2018-07-14T14:34:40.816Z,241.48
2018-07-14T14:37:12.031Z,220.15
2018-07-14T14:39:43.279Z,220.15
2018-07-14T14:42:14.610Z,230.05
2018-07-14T14:44:46.535Z,208.90
2018-07-14T14:47:18.194Z,218.37
2018-07-14T14:49:50.636Z,213.65
2018-07-14T14:52:21.970Z,217.85
2018-07-14T14:54:53.407Z,220.15
2018-07-14T14:57:24.437Z,213.70
2018-07-14T14:59:55.656Z,201.20
2018-07-14T15:02:27.215Z,211.32
2018-07-14T15:05:04.082Z,215.80
2018-07-14T15:07:36.181Z,223.70
2018-07-14T15:10:07.403Z,210.97
2018-07-14T15:12:39.524Z,211.07
2018-07-14T15:15:11.676Z,215.12
2018-07-14T15:17:43.178Z,212.53
2018-07-14T15:20:15.237Z,216.42
2018-07-14T15:22:47.280Z,211.75
2018-07-14T15:25:20.920Z,213.25
2018-07-14T15:27:52.243Z,224.62
2018-07-14T15:30:23.875Z,217.77
2018-07-14T15:32:55.136Z,208.65
2018-07-14T15:35:26.271Z,207.77
2018-07-14T15:37:58.611Z,203.45
2018-07-14T15:40:30.387Z,214.97
2018-07-14T15:43:02.735Z,215.45
2018-07-14T15:45:34.674Z,210.05
2018-07-14T15:48:07.114Z,211.80
2018-07-14T15:50:39.527Z,196.22
2018-07-14T15:53:11.892Z,211.43
2018-07-14T15:55:43.364Z,200.22
2018-07-14T15:58:14.540Z,204.20
2018-07-14T16:00:45.878Z,204.10
2018-07-14T16:03:17.731Z,204.38
2018-07-14T16:05:48.857Z,207.50
2018-07-14T16:08:20.123Z,206.60
2018-07-14T16:10:51.612Z,202.55
2018-07-14T16:13:22.723Z,210.35
2018-07-14T16:15:53.953Z,208.80
2018-07-14T16:18:25.199Z,201.77
2018-07-14T16:20:56.276Z,208.13
2018-07-14T16:23:27.574Z,211.03
2018-07-14T16:25:58.819Z,201.00
2018-07-14T16:28:30.469Z,200.35
2018-07-14T16:31:01.644Z,196.82
2018-07-14T16:33:32.931Z,194.82
2018-07-14T16:36:04.171Z,195.20
2018-07-14T16:38:35.376Z,197.10
2018-07-14T16:41:07.847Z,202.22
2018-07-14T16:43:40.166Z,198.00
2018-07-14T16:46:11.354Z,206.00
2018-07-14T16:48:42.530Z,203.73
2018-07-14T16:51:14.202Z,204.13
2018-07-14T16:53:45.522Z,204.85
2018-07-14T16:56:16.735Z,198.07
2018-07-14T16:58:47.987Z,197.22
2018-07-14T17:01:19.135Z,197.22
2018-07-14T17:03:50.403Z,203.98
2018-07-14T17:06:22.165Z,201.60
2018-07-14T17:08:53.610Z,200.60
2018-07-14T17:11:24.909Z,203.05
2018-07-14T17:13:56.080Z,196.87
2018-07-14T17:16:27.807Z,200.32
2018-07-14T17:18:58.939Z,194.67
2018-07-14T17:21:30.086Z,195.85
2018-07-14T17:24:01.664Z,198.87
2018-07-14T17:26:32.814Z,195.30
2018-07-14T17:29:04.171Z,197.62
2018-07-14T17:31:35.512Z,199.62
2018-07-14T17:34:06.852Z,195.22
2018-07-14T17:36:38.215Z,193.55
2018-07-14T17:39:09.981Z,196.40
2018-07-14T17:41:41.391Z,197.17
2018-07-14T17:44:14.604Z,193.65
2018-07-14T17:46:46.316Z,193.65
2018-07-14T17:49:17.713Z,190.62
2018-07-14T17:51:48.842Z,194.95
2018-07-14T17:54:20.109Z,194.45
2018-07-14T17:56:52.189Z,195.60
2018-07-14T17:59:23.639Z,197.00
2018-07-14T18:01:55.095Z,189.67
2018-07-14T18:04:26.295Z,196.12
2018-07-14T18:06:57.420Z,195.92
2018-07-14T18:09:28.864Z,202.93
2018-07-14T18:11:59.973Z,198.72
2018-07-14T18:14:31.919Z,202.05
2018-07-14T18:17:03.268Z,197.35
2018-07-14T18:19:34.508Z,202.85
2018-07-14T18:22:05.831Z,212.02
2018-07-14T18:24:37.019Z,206.87
2018-07-14T18:27:08.087Z,199.50
2018-07-14T18:29:39.515Z,204.35
2018-07-14T18:32:10.751Z,203.12
2018-07-14T18:34:43.798Z,202.85
2018-07-14T18:37:15.167Z,194.15
2018-07-14T18:39:46.865Z,196.63
2018-07-14T18:42:18.187Z,192.45
2018-07-14T18:44:49.588Z,184.90
2018-07-14T18:47:20.862Z,186.07
2018-07-14T18:49:52.080Z,192.05
2018-07-14T18:52:23.805Z,192.30
2018-07-14T18:54:56.105Z,189.18
2018-07-14T18:57:27.712Z,189.95
2018-07-14T19:00:00.576Z,189.85
2018-07-14T19:02:32.447Z,191.62
2018-07-14T19:05:06.284Z,196.40
2018-07-14T19:07:38.629Z,201.37
2018-07-14T19:10:10.772Z,215.80
2018-07-14T19:12:44.201Z,197.32
2018-07-14T19:15:19.284Z,191.98
2018-07-14T19:17:51.436Z,193.80
2018-07-14T19:20:25.262Z,197.78
2018-07-14T19:22:57.140Z,193.28
2018-07-14T19:25:30.084Z,191.32
2018-07-14T19:28:03.178Z,186.60
2018-07-14T19:30:35.895Z,194.43
2018-07-14T19:33:10.093Z,188.35
2018-07-14T19:35:42.088Z,198.40
2018-07-14T19:38:13.502Z,192.50
2018-07-14T19:40:45.100Z,199.17
2018-07-14T19:43:16.593Z,193.62
2018-07-14T19:45:48.428Z,194.05
2018-07-14T19:48:19.750Z,186.18
2018-07-14T19:50:51.367Z,185.10
2018-07-14T19:53:23.362Z,218.65
2018-07-14T19:55:56.196Z,191.90
2018-07-14T19:58:28.431Z,190.77
2018-07-14T20:01:01.057Z,189.67
2018-07-14T20:03:33.686Z,189.90
2018-07-14T20:06:05.131Z,189.82
2018-07-14T20:08:37.971Z,187.77
2018-07-14T20:11:12.019Z,192.57
2018-07-14T20:13:45.281Z,187.80
2018-07-14T20:16:17.819Z,187.57
2018-07-14T20:18:49.480Z,186.35
2018-07-14T20:21:21.749Z,187.90
2018-07-14T20:23:53.420Z,188.20
2018-07-14T20:26:25.751Z,186.97
2018-07-14T20:28:56.916Z,183.37
2018-07-14T20:31:28.047Z,183.45
2018-07-14T20:33:59.991Z,179.23
2018-07-14T20:36:32.563Z,184.80
2018-07-14T20:39:07.064Z,180.52
2018-07-14T20:41:38.733Z,188.05
2018-07-14T20:44:10.436Z,182.20
2018-07-14T20:46:42.242Z,194.80
2018-07-14T20:49:13.707Z,190.88
2018-07-14T20:51:44.990Z,189.50
2018-07-14T20:54:16.230Z,193.90
2018-07-14T20:56:47.638Z,189.57
2018-07-14T20:59:18.893Z,188.10
2018-07-14T21:01:51.855Z,190.92
2018-07-14T21:04:25.082Z,187.03
2018-07-14T21:06:56.840Z,185.25
2018-07-14T21:09:28.088Z,183.62
2018-07-14T21:11:59.266Z,184.70
2018-07-14T21:14:30.459Z,186.62
2018-07-14T21:17:02.259Z,180.60
2018-07-14T21:19:34.043Z,179.38
2018-07-14T21:22:05.686Z,188.20
2018-07-14T21:24:37.061Z,200.80
2018-07-14T21:27:08.395Z,183.93
2018-07-14T21:29:40.180Z,178.75
2018-07-14T21:32:11.617Z,181.28
2018-07-14T21:34:43.306Z,180.87
2018-07-14T21:37:14.717Z,181.30
2018-07-14T21:39:46.135Z,179.45
2018-07-14T21:42:17.429Z,182.97
2018-07-14T21:44:48.734Z,183.50
2018-07-14T21:47:20.053Z,178.35
2018-07-14T21:49:51.284Z,179.12
2018-07-14T21:52:23.210Z,176.45
2018-07-14T21:54:54.606Z,182.70
2018-07-14T21:57:25.659Z,181.22
2018-07-14T21:59:57.139Z,178.20
2018-07-14T22:02:28.428Z,176.70
2018-07-14T22:04:59.708Z,178.95
2018-07-14T22:07:30.824Z,180.87
2018-07-14T22:10:02.311Z,179.20
2018-07-14T22:12:33.575Z,178.87
2018-07-14T22:15:05.153Z,175.72
2018-07-14T22:17:37.224Z,179.47
2018-07-14T22:20:10.944Z,179.68
2018-07-14T22:22:42.747Z,179.72
2018-07-14T22:25:14.518Z,178.65
2018-07-14T22:27:45.996Z,183.78
2018-07-14T22:30:17.228Z,180.48
2018-07-14T22:32:48.433Z,182.80
2018-07-14T22:35:20.927Z,181.93
2018-07-14T22:37:52.246Z,181.30
2018-07-14T22:40:25.114Z,182.55
2018-07-14T22:42:56.595Z,183.37
2018-07-14T22:45:27.950Z,181.93
2018-07-14T22:47:59.486Z,194.00
2018-07-14T22:50:34.298Z,202.30
2018-07-14T22:53:05.883Z,193.72
2018-07-14T22:55:38.418Z,183.32
2018-07-14T22:58:11.068Z,181.78
2018-07-14T23:00:42.250Z,181.67
2018-07-14T23:03:13.622Z,177.72
2018-07-14T23:05:44.833Z,176.85
2018-07-14T23:08:16.333Z,179.75
2018-07-14T23:10:47.532Z,179.57
2018-07-14T23:13:18.566Z,181.67
2018-07-14T23:15:49.817Z,180.18
2018-07-14T23:18:21.010Z,180.40
2018-07-14T23:21:13.912Z,181.22
2018-07-14T23:23:53.620Z,180.00
2018-07-14T23:26:24.627Z,180.22
2018-07-14T23:28:55.763Z,177.85
2018-07-14T23:31:26.919Z,180.95
2018-07-14T23:33:58.156Z,182.90
2018-07-14T23:36:29.454Z,183.40
2018-07-14T23:39:01.598Z,184.25
2018-07-14T23:41:32.913Z,185.65
2018-07-14T23:44:04.062Z,183.00
2018-07-14T23:46:35.344Z,181.60
2018-07-14T23:49:06.766Z,183.93
2018-07-14T23:51:37.939Z,192.53
2018-07-14T23:54:09.059Z,183.40
2018-07-14T23:56:40.340Z,180.20
2018-07-14T23:59:12.214Z,180.72
